createdAt,value
2019-01-10T00:00:48.886Z,34.67
2019-01-10T00:01:54.663Z,34.58
2019-01-10T00:03:00.382Z,33.35
2019-01-10T00:04:06.795Z,34.30
2019-01-10T00:05:13.461Z,33.40
2019-01-10T00:06:19.328Z,33.95
2019-01-10T00:07:26.437Z,33.13
2019-01-10T00:08:32.289Z,34.18
2019-01-10T00:09:38.129Z,34.10
2019-01-10T00:10:43.968Z,34.00
2019-01-10T00:11:49.858Z,31.45
2019-01-10T00:12:57.003Z,31.62
2019-01-10T00:14:02.929Z,30.57
2019-01-10T00:15:12.161Z,30.35
2019-01-10T00:16:17.923Z,31.85
2019-01-10T00:17:23.779Z,29.92
2019-01-10T00:18:29.678Z,30.45
2019-01-10T00:19:35.541Z,30.48
2019-01-10T00:20:41.337Z,30.15
2019-01-10T00:21:47.294Z,30.37
2019-01-10T00:22:53.164Z,30.82
2019-01-10T00:23:59.042Z,31.90
2019-01-10T00:25:05.837Z,30.15
2019-01-10T00:26:15.886Z,31.70
2019-01-10T00:27:21.716Z,30.75
2019-01-10T00:28:27.635Z,30.85
2019-01-10T00:29:33.478Z,30.27
2019-01-10T00:30:39.336Z,31.25
2019-01-10T00:31:46.418Z,32.00
2019-01-10T00:32:52.258Z,29.75
2019-01-10T00:33:58.234Z,31.90
2019-01-10T00:35:04.722Z,31.95
2019-01-10T00:36:10.724Z,30.25
2019-01-10T00:37:17.720Z,31.70
2019-01-10T00:38:23.504Z,32.53
2019-01-10T00:39:30.645Z,31.33
2019-01-10T00:40:36.445Z,31.75
2019-01-10T00:41:42.289Z,31.77
2019-01-10T00:42:49.532Z,31.02
2019-01-10T00:43:55.953Z,31.73
2019-01-10T00:45:01.871Z,31.95
2019-01-10T00:46:07.951Z,31.35
2019-01-10T00:47:13.828Z,32.13
2019-01-10T00:48:19.685Z,31.42
2019-01-10T00:49:25.670Z,31.25
2019-01-10T00:50:31.549Z,31.50
2019-01-10T00:51:37.445Z,30.23
2019-01-10T00:52:43.217Z,32.23
2019-01-10T00:53:49.050Z,32.98
2019-01-10T00:54:56.048Z,31.48
2019-01-10T00:56:01.921Z,30.65
2019-01-10T00:57:07.916Z,32.00
2019-01-10T00:58:13.695Z,31.15
2019-01-10T00:59:19.599Z,33.65
2019-01-10T01:00:27.747Z,33.60
2019-01-10T01:01:33.678Z,32.85
2019-01-10T01:02:39.649Z,31.02
2019-01-10T01:03:45.477Z,33.75
2019-01-10T01:04:51.312Z,32.95
2019-01-10T01:05:57.119Z,33.28
2019-01-10T01:07:03.018Z,32.70
2019-01-10T01:08:08.956Z,33.98
2019-01-10T01:09:15.198Z,33.65
2019-01-10T01:10:23.139Z,32.95
2019-01-10T01:11:29.000Z,32.38
2019-01-10T01:12:34.819Z,33.78
2019-01-10T01:13:40.651Z,33.33
2019-01-10T01:14:46.438Z,33.10
2019-01-10T01:15:53.678Z,33.63
2019-01-10T01:16:59.459Z,32.33
2019-01-10T01:18:05.256Z,34.40
2019-01-10T01:19:11.054Z,33.98
2019-01-10T01:20:19.874Z,34.35
2019-01-10T01:21:27.069Z,32.23
2019-01-10T01:22:32.871Z,34.75
2019-01-10T01:23:38.717Z,34.50
2019-01-10T01:24:44.510Z,34.05
2019-01-10T01:25:50.302Z,33.50
2019-01-10T01:26:56.099Z,32.78
2019-01-10T01:28:01.910Z,33.65
2019-01-10T01:29:07.729Z,31.42
2019-01-10T01:30:16.022Z,31.42
2019-01-10T01:31:21.795Z,31.50
2019-01-10T01:32:27.587Z,31.52
2019-01-10T01:33:33.470Z,31.10
2019-01-10T01:34:39.406Z,32.28
2019-01-10T01:35:45.241Z,31.82
2019-01-10T01:36:51.058Z,33.78
2019-01-10T01:37:56.902Z,33.30
2019-01-10T01:39:02.768Z,33.38
2019-01-10T01:40:10.420Z,32.75
2019-01-10T01:41:16.268Z,32.15
2019-01-10T01:42:23.563Z,31.12
2019-01-10T01:43:29.705Z,33.08
2019-01-10T01:44:35.585Z,32.25
2019-01-10T01:45:41.441Z,31.95
2019-01-10T01:46:47.315Z,31.75
2019-01-10T01:47:53.216Z,33.20
2019-01-10T01:48:59.078Z,33.53
2019-01-10T01:50:06.211Z,31.73
2019-01-10T01:51:13.161Z,31.87
2019-01-10T01:52:19.031Z,31.42
2019-01-10T01:53:24.885Z,33.38
2019-01-10T01:54:30.728Z,31.17
2019-01-10T01:55:36.572Z,31.45
2019-01-10T01:56:42.454Z,31.10
2019-01-10T01:57:48.513Z,33.00
2019-01-10T01:58:54.655Z,31.70
2019-01-10T02:00:01.829Z,30.72
2019-01-10T02:01:16.817Z,32.60
2019-01-10T02:02:22.729Z,30.92
2019-01-10T02:03:28.921Z,31.85
2019-01-10T02:04:34.710Z,32.20
2019-01-10T02:05:41.452Z,30.97
2019-01-10T02:06:47.271Z,31.15
2019-01-10T02:07:53.766Z,32.23
2019-01-10T02:08:59.695Z,31.87
2019-01-10T02:10:07.835Z,31.48
2019-01-10T02:11:13.985Z,32.90
2019-01-10T02:12:19.830Z,33.67
2019-01-10T02:13:25.651Z,32.65
2019-01-10T02:14:31.438Z,31.68
2019-01-10T02:15:37.269Z,32.50
2019-01-10T02:16:43.006Z,33.50
2019-01-10T02:17:49.565Z,32.40
2019-01-10T02:18:57.042Z,32.35
2019-01-10T02:20:03.354Z,32.25
2019-01-10T02:21:09.171Z,32.45
2019-01-10T02:22:15.058Z,33.13
2019-01-10T02:23:21.067Z,32.20
2019-01-10T02:24:26.847Z,32.80
2019-01-10T02:25:32.781Z,32.20
2019-01-10T02:26:38.712Z,33.80
2019-01-10T02:27:44.539Z,31.30
2019-01-10T02:28:50.446Z,32.78
2019-01-10T02:29:56.241Z,32.67
2019-01-10T02:31:02.172Z,33.35
2019-01-10T02:32:08.072Z,33.53
2019-01-10T02:33:13.978Z,32.50
2019-01-10T02:34:19.848Z,32.42
2019-01-10T02:35:25.668Z,32.25
2019-01-10T02:36:31.421Z,33.50
2019-01-10T02:37:37.312Z,31.57
2019-01-10T02:38:43.157Z,34.33
2019-01-10T02:39:49.050Z,33.75
2019-01-10T02:40:55.432Z,33.60
2019-01-10T02:42:02.421Z,32.28
2019-01-10T02:43:09.501Z,33.20
2019-01-10T02:44:15.718Z,34.03
2019-01-10T02:45:22.080Z,32.80
2019-01-10T02:46:27.863Z,33.20
2019-01-10T02:47:33.581Z,33.78
2019-01-10T02:48:39.459Z,33.15
2019-01-10T02:49:45.305Z,33.80
2019-01-10T02:50:51.250Z,33.98
2019-01-10T02:51:57.077Z,34.30
2019-01-10T02:53:02.898Z,34.00
2019-01-10T02:54:08.629Z,35.28
2019-01-10T02:55:14.690Z,33.88
2019-01-10T02:56:20.550Z,34.05
2019-01-10T02:57:26.359Z,33.15
2019-01-10T02:58:32.133Z,35.05
2019-01-10T02:59:37.943Z,33.05
2019-01-10T03:00:43.930Z,34.20
2019-01-10T03:01:50.088Z,33.95
2019-01-10T03:02:55.890Z,33.92
2019-01-10T03:04:01.731Z,35.13
2019-01-10T03:05:07.721Z,34.88
2019-01-10T03:06:13.558Z,33.85
2019-01-10T03:07:19.408Z,32.55
2019-01-10T03:08:25.258Z,33.48
2019-01-10T03:09:31.029Z,34.92
2019-01-10T03:10:36.909Z,33.25
2019-01-10T03:11:43.839Z,33.58
2019-01-10T03:12:49.818Z,33.42
2019-01-10T03:13:56.648Z,35.15
2019-01-10T03:15:02.378Z,33.75
2019-01-10T03:16:08.689Z,34.03
2019-01-10T03:17:14.439Z,34.20
2019-01-10T03:18:20.265Z,34.65
2019-01-10T03:19:26.141Z,33.98
2019-01-10T03:20:33.117Z,34.20
2019-01-10T03:21:38.990Z,34.55
2019-01-10T03:22:44.782Z,35.17
2019-01-10T03:24:03.793Z,34.33
2019-01-10T03:25:10.640Z,33.92
2019-01-10T03:26:16.449Z,34.83
2019-01-10T03:27:22.438Z,34.92
2019-01-10T03:28:28.247Z,34.35
2019-01-10T03:29:34.148Z,36.03
2019-01-10T03:30:39.930Z,37.33
2019-01-10T03:31:46.810Z,34.73
2019-01-10T03:32:52.622Z,36.20
2019-01-10T03:33:58.475Z,35.68
2019-01-10T03:35:05.098Z,35.83
2019-01-10T03:36:11.048Z,35.98
2019-01-10T03:37:16.855Z,36.45
2019-01-10T03:38:22.608Z,36.25
2019-01-10T03:39:28.383Z,36.13
2019-01-10T03:40:35.158Z,36.48
2019-01-10T03:41:40.930Z,35.75
2019-01-10T03:42:46.789Z,36.13
2019-01-10T03:43:55.169Z,36.53
2019-01-10T03:45:00.900Z,35.15
2019-01-10T03:46:06.806Z,36.28
2019-01-10T03:47:13.448Z,34.78
2019-01-10T03:48:19.271Z,35.23
2019-01-10T03:49:25.101Z,36.98
2019-01-10T03:50:30.917Z,37.28
2019-01-10T03:51:36.751Z,35.98
2019-01-10T03:52:42.621Z,35.30
2019-01-10T03:53:48.426Z,36.77
2019-01-10T03:54:54.553Z,38.42
2019-01-10T03:56:00.313Z,36.48
2019-01-10T03:57:06.120Z,39.95
2019-01-10T03:58:11.982Z,36.88
2019-01-10T03:59:17.869Z,34.98
2019-01-10T04:00:26.277Z,38.28
2019-01-10T04:01:32.139Z,35.90
2019-01-10T04:02:37.893Z,35.33
2019-01-10T04:03:43.688Z,35.70
2019-01-10T04:04:49.949Z,36.30
2019-01-10T04:05:55.804Z,36.73
2019-01-10T04:07:03.707Z,36.90
2019-01-10T04:08:09.523Z,41.13
2019-01-10T04:09:15.268Z,38.05
2019-01-10T04:10:21.251Z,36.98
2019-01-10T04:11:26.998Z,37.88
2019-01-10T04:12:32.794Z,36.50
2019-01-10T04:13:38.661Z,36.58
2019-01-10T04:14:44.428Z,37.33
2019-01-10T04:15:50.346Z,37.08
2019-01-10T04:16:56.139Z,37.65
2019-01-10T04:18:01.954Z,36.70
2019-01-10T04:19:07.796Z,37.25
2019-01-10T04:20:15.003Z,36.40
2019-01-10T04:21:20.832Z,37.42
2019-01-10T04:22:26.614Z,37.55
2019-01-10T04:23:32.433Z,35.95
2019-01-10T04:24:38.731Z,36.65
2019-01-10T04:25:44.594Z,36.33
2019-01-10T04:26:50.354Z,35.58
2019-01-10T04:27:56.148Z,36.10
2019-01-10T04:29:02.002Z,35.05
2019-01-10T04:30:10.432Z,34.08
2019-01-10T04:31:17.504Z,35.98
2019-01-10T04:32:23.316Z,35.50
2019-01-10T04:33:29.628Z,35.48
2019-01-10T04:34:35.939Z,35.35
2019-01-10T04:35:43.063Z,37.75
2019-01-10T04:36:52.004Z,37.28
2019-01-10T04:37:58.589Z,34.67
2019-01-10T04:39:06.092Z,34.48
2019-01-10T04:40:14.768Z,34.83
2019-01-10T04:41:20.675Z,35.52
2019-01-10T04:42:26.550Z,34.65
2019-01-10T04:43:32.515Z,35.55
2019-01-10T04:44:39.298Z,37.25
2019-01-10T04:45:45.163Z,33.85
2019-01-10T04:46:51.017Z,36.05
2019-01-10T04:47:56.855Z,37.20
2019-01-10T04:49:02.629Z,35.78
2019-01-10T04:50:09.246Z,36.33
2019-01-10T04:51:14.989Z,34.92
2019-01-10T04:52:20.898Z,36.17
2019-01-10T04:53:28.204Z,35.28
2019-01-10T04:54:38.262Z,33.75
2019-01-10T04:55:41.835Z,33.83
2019-01-10T04:56:47.703Z,34.27
2019-01-10T04:57:53.609Z,34.25
2019-01-10T04:58:59.464Z,34.85
2019-01-10T05:00:09.619Z,34.53
2019-01-10T05:01:16.678Z,34.30
2019-01-10T05:02:22.614Z,32.58
2019-01-10T05:03:28.555Z,34.90
2019-01-10T05:04:34.320Z,35.00
2019-01-10T05:05:41.202Z,34.88
2019-01-10T05:06:48.133Z,35.70
2019-01-10T05:07:54.014Z,33.92
2019-01-10T05:08:59.936Z,34.23
2019-01-10T05:10:07.134Z,35.73
2019-01-10T05:11:12.880Z,35.78
2019-01-10T05:12:18.597Z,36.40
2019-01-10T05:13:24.338Z,34.33
2019-01-10T05:14:30.148Z,34.00
2019-01-10T05:15:35.929Z,33.88
2019-01-10T05:16:41.683Z,35.48
2019-01-10T05:17:47.449Z,33.98
2019-01-10T05:18:53.261Z,34.35
2019-01-10T05:19:59.470Z,33.98
2019-01-10T05:21:05.563Z,35.88
2019-01-10T05:22:11.808Z,34.60
2019-01-10T05:23:17.546Z,34.75
2019-01-10T05:24:23.299Z,36.40
2019-01-10T05:25:29.105Z,35.60
2019-01-10T05:26:34.811Z,34.25
2019-01-10T05:27:40.966Z,34.30
2019-01-10T05:28:46.735Z,35.80
2019-01-10T05:29:52.538Z,34.43
2019-01-10T05:30:58.390Z,34.95
2019-01-10T05:32:04.189Z,35.35
2019-01-10T05:33:10.012Z,35.30
2019-01-10T05:34:15.818Z,36.83
2019-01-10T05:35:21.721Z,35.03
2019-01-10T05:36:27.536Z,34.85
2019-01-10T05:37:33.329Z,34.88
2019-01-10T05:38:39.008Z,34.50
2019-01-10T05:39:47.724Z,35.30
2019-01-10T05:40:52.238Z,34.63
2019-01-10T05:41:58.070Z,34.83
2019-01-10T05:43:03.881Z,34.03
2019-01-10T05:44:09.659Z,34.80
2019-01-10T05:45:16.150Z,35.58
2019-01-10T05:46:21.957Z,33.80
2019-01-10T05:47:27.788Z,34.13
2019-01-10T05:48:33.558Z,34.67
2019-01-10T05:49:39.272Z,34.70
2019-01-10T05:50:45.026Z,33.20
2019-01-10T05:51:51.891Z,33.92
2019-01-10T05:52:57.750Z,33.02
2019-01-10T05:54:03.569Z,33.42
2019-01-10T05:55:11.819Z,32.93
2019-01-10T05:56:17.628Z,33.73
2019-01-10T05:57:23.518Z,32.60
2019-01-10T05:58:29.422Z,33.45
2019-01-10T05:59:35.268Z,33.18
2019-01-10T06:00:41.057Z,31.48
2019-01-10T06:01:46.881Z,32.93
2019-01-10T06:02:52.720Z,33.85
2019-01-10T06:03:58.554Z,31.73
2019-01-10T06:05:04.636Z,33.60
2019-01-10T06:06:10.470Z,31.77
2019-01-10T06:07:16.303Z,31.70
2019-01-10T06:08:22.210Z,32.78
2019-01-10T06:09:27.994Z,32.30
2019-01-10T06:10:33.803Z,32.33
2019-01-10T06:11:39.640Z,32.80
2019-01-10T06:12:45.409Z,30.70
2019-01-10T06:13:52.639Z,32.58
2019-01-10T06:14:58.445Z,32.83
2019-01-10T06:16:04.363Z,31.55
2019-01-10T06:17:10.189Z,33.08
2019-01-10T06:18:16.077Z,32.88
2019-01-10T06:19:26.656Z,32.08
2019-01-10T06:20:29.375Z,32.90
2019-01-10T06:21:35.152Z,31.70
2019-01-10T06:22:40.859Z,32.95
2019-01-10T06:23:46.627Z,33.50
2019-01-10T06:24:53.407Z,31.93
2019-01-10T06:25:59.213Z,32.45
2019-01-10T06:27:05.021Z,31.15
2019-01-10T06:28:10.859Z,32.80
2019-01-10T06:29:16.598Z,32.88
2019-01-10T06:30:24.039Z,31.60
2019-01-10T06:31:29.849Z,32.60
2019-01-10T06:32:35.709Z,32.58
2019-01-10T06:33:41.559Z,31.00
2019-01-10T06:34:47.406Z,33.80
2019-01-10T06:35:55.986Z,32.08
2019-01-10T06:37:01.820Z,32.33
2019-01-10T06:38:08.077Z,29.77
2019-01-10T06:39:13.917Z,30.65
2019-01-10T06:40:21.578Z,31.35
2019-01-10T06:41:27.360Z,31.27
2019-01-10T06:42:33.182Z,31.37
2019-01-10T06:43:39.081Z,31.27
2019-01-10T06:44:45.339Z,33.70
2019-01-10T06:45:51.210Z,31.93
2019-01-10T06:46:56.952Z,31.40
2019-01-10T06:48:02.821Z,31.90
2019-01-10T06:49:08.519Z,35.23
2019-01-10T06:50:15.370Z,35.65
2019-01-10T06:51:21.159Z,32.88
2019-01-10T06:52:26.968Z,33.92
2019-01-10T06:53:32.829Z,32.20
2019-01-10T06:54:38.691Z,34.03
2019-01-10T06:55:44.512Z,31.80
2019-01-10T06:56:50.306Z,32.38
2019-01-10T06:57:56.251Z,33.63
2019-01-10T06:59:02.329Z,34.00
2019-01-10T07:00:12.514Z,33.67
2019-01-10T07:01:18.268Z,32.80
2019-01-10T07:02:24.148Z,34.48
2019-01-10T07:03:29.929Z,33.98
2019-01-10T07:04:35.882Z,34.60
2019-01-10T07:05:41.770Z,32.28
2019-01-10T07:06:47.498Z,35.05
2019-01-10T07:07:56.534Z,34.18
2019-01-10T07:09:00.718Z,34.63
2019-01-10T07:10:12.458Z,33.50
2019-01-10T07:11:18.169Z,33.95
2019-01-10T07:12:23.955Z,32.88
2019-01-10T07:13:29.699Z,34.58
2019-01-10T07:14:35.421Z,34.18
2019-01-10T07:15:41.271Z,34.75
2019-01-10T07:16:53.535Z,34.35
2019-01-10T07:17:55.013Z,37.67
2019-01-10T07:19:00.690Z,37.42
2019-01-10T07:20:07.227Z,38.25
2019-01-10T07:21:12.984Z,36.05
2019-01-10T07:22:19.669Z,35.88
2019-01-10T07:23:25.418Z,35.33
2019-01-10T07:24:31.154Z,37.80
2019-01-10T07:25:36.998Z,37.53
2019-01-10T07:26:43.125Z,34.65
2019-01-10T07:28:10.347Z,36.53
2019-01-10T07:29:16.250Z,34.03
2019-01-10T07:30:35.802Z,36.35
2019-01-10T07:31:34.855Z,34.98
2019-01-10T07:32:40.598Z,33.83
2019-01-10T07:33:46.558Z,34.40
2019-01-10T07:35:00.313Z,34.45
2019-01-10T07:36:06.150Z,32.33
2019-01-10T07:37:12.995Z,34.70
2019-01-10T07:38:19.116Z,33.48
2019-01-10T07:39:24.998Z,32.30
2019-01-10T07:40:30.797Z,34.25
2019-01-10T07:41:39.878Z,34.40
2019-01-10T07:42:45.619Z,34.08
2019-01-10T07:43:51.325Z,34.38
2019-01-10T07:45:02.645Z,36.60
2019-01-10T07:46:07.519Z,32.42
2019-01-10T07:47:14.268Z,33.45
2019-01-10T07:48:20.087Z,32.63
2019-01-10T07:49:25.901Z,33.25
2019-01-10T07:50:36.224Z,33.33
2019-01-10T07:51:48.298Z,36.63
2019-01-10T07:52:54.087Z,33.13
2019-01-10T07:53:59.827Z,34.55
2019-01-10T07:55:05.810Z,35.52
2019-01-10T07:56:11.588Z,34.25
2019-01-10T07:57:17.409Z,35.48
2019-01-10T07:58:23.228Z,34.50
2019-01-10T07:59:29.030Z,34.40
2019-01-10T08:00:34.867Z,35.75
2019-01-10T08:01:40.750Z,35.43
2019-01-10T08:02:46.610Z,34.13
2019-01-10T08:03:52.431Z,35.03
2019-01-10T08:04:58.231Z,34.40
2019-01-10T08:06:04.828Z,35.03
2019-01-10T08:07:10.687Z,35.28
2019-01-10T08:08:16.491Z,34.20
2019-01-10T08:09:22.337Z,33.95
2019-01-10T08:10:28.132Z,35.28
2019-01-10T08:11:33.993Z,35.58
2019-01-10T08:12:40.072Z,34.95
2019-01-10T08:13:45.942Z,35.40
2019-01-10T08:14:51.978Z,36.75
2019-01-10T08:15:57.757Z,37.35
2019-01-10T08:17:03.589Z,37.28
2019-01-10T08:18:09.565Z,37.70
2019-01-10T08:19:15.389Z,36.73
2019-01-10T08:20:21.196Z,38.73
2019-01-10T08:21:26.965Z,36.53
2019-01-10T08:22:32.787Z,36.77
2019-01-10T08:23:38.640Z,39.73
2019-01-10T08:24:44.421Z,37.35
2019-01-10T08:25:50.180Z,38.02
2019-01-10T08:26:55.989Z,37.08
2019-01-10T08:28:01.870Z,37.25
2019-01-10T08:29:07.679Z,35.10
2019-01-10T08:30:16.705Z,36.23
2019-01-10T08:31:22.520Z,36.23
2019-01-10T08:32:28.329Z,36.95
2019-01-10T08:33:34.108Z,36.40
2019-01-10T08:34:39.869Z,36.63
2019-01-10T08:35:45.689Z,37.25
2019-01-10T08:36:51.408Z,35.00
2019-01-10T08:37:57.473Z,36.73
2019-01-10T08:39:04.533Z,35.90
2019-01-10T08:40:10.721Z,38.23
2019-01-10T08:41:16.449Z,37.65
2019-01-10T08:42:22.201Z,36.20
2019-01-10T08:43:29.871Z,37.40
2019-01-10T08:44:35.636Z,36.65
2019-01-10T08:45:41.420Z,36.33
2019-01-10T08:46:47.748Z,36.10
2019-01-10T08:47:53.481Z,35.95
2019-01-10T08:48:59.231Z,34.38
2019-01-10T08:50:06.548Z,36.65
2019-01-10T08:51:12.416Z,34.43
2019-01-10T08:52:18.217Z,35.20
2019-01-10T08:53:24.018Z,34.08
2019-01-10T08:54:29.829Z,34.30
2019-01-10T08:55:35.662Z,34.88
2019-01-10T08:56:41.438Z,33.83
2019-01-10T08:57:47.273Z,33.80
2019-01-10T08:58:53.009Z,34.23
2019-01-10T08:59:59.258Z,33.50
2019-01-10T09:01:05.080Z,33.45
2019-01-10T09:02:11.200Z,35.23
2019-01-10T09:03:16.998Z,34.80
2019-01-10T09:04:22.740Z,33.28
2019-01-10T09:05:29.069Z,35.13
2019-01-10T09:06:34.902Z,35.13
2019-01-10T09:07:40.829Z,33.70
2019-01-10T09:08:47.009Z,34.08
2019-01-10T09:09:54.023Z,34.55
2019-01-10T09:10:59.810Z,34.45
2019-01-10T09:12:05.629Z,34.30
2019-01-10T09:13:11.448Z,33.00
2019-01-10T09:14:17.168Z,32.35
2019-01-10T09:15:25.447Z,32.08
2019-01-10T09:16:30.322Z,32.65
2019-01-10T09:17:36.057Z,33.02
2019-01-10T09:18:41.926Z,31.17
2019-01-10T09:19:47.673Z,32.98
2019-01-10T09:20:53.440Z,32.78
2019-01-10T09:21:59.158Z,35.03
2019-01-10T09:23:05.044Z,31.25
2019-01-10T09:24:11.022Z,34.13
2019-01-10T09:25:17.871Z,35.65
2019-01-10T09:26:24.230Z,32.60
2019-01-10T09:27:30.089Z,32.85
2019-01-10T09:28:35.898Z,33.15
2019-01-10T09:29:41.778Z,34.70
2019-01-10T09:30:47.539Z,34.53
2019-01-10T09:31:53.318Z,32.75
2019-01-10T09:32:59.189Z,33.38
2019-01-10T09:34:04.949Z,33.73
2019-01-10T09:35:10.970Z,32.98
2019-01-10T09:36:16.670Z,32.73
2019-01-10T09:37:22.419Z,32.90
2019-01-10T09:38:28.240Z,33.63
2019-01-10T09:39:33.998Z,35.20
2019-01-10T09:40:39.973Z,36.17
2019-01-10T09:41:45.669Z,35.03
2019-01-10T09:42:51.426Z,35.05
2019-01-10T09:43:57.237Z,34.25
2019-01-10T09:45:03.003Z,34.75
2019-01-10T09:46:08.814Z,34.55
2019-01-10T09:47:14.719Z,33.50
2019-01-10T09:48:20.502Z,33.53
2019-01-10T09:49:26.323Z,32.78
2019-01-10T09:50:32.105Z,32.53
2019-01-10T09:51:38.091Z,32.83
2019-01-10T09:52:43.928Z,33.15
2019-01-10T09:53:49.722Z,33.05
2019-01-10T09:54:55.439Z,32.88
2019-01-10T09:56:01.242Z,33.85
2019-01-10T09:57:07.218Z,34.15
2019-01-10T09:58:13.077Z,34.13
2019-01-10T09:59:18.891Z,32.35
2019-01-10T10:00:29.423Z,32.75
2019-01-10T10:01:35.280Z,32.55
2019-01-10T10:02:41.100Z,34.48
2019-01-10T10:03:47.198Z,33.63
2019-01-10T10:04:53.009Z,34.30
2019-01-10T10:06:07.361Z,34.05
2019-01-10T10:07:06.388Z,33.75
2019-01-10T10:08:12.229Z,34.08
2019-01-10T10:09:17.989Z,34.08
2019-01-10T10:10:23.802Z,33.02
2019-01-10T10:11:34.186Z,33.02
2019-01-10T10:12:37.030Z,33.67
2019-01-10T10:13:42.839Z,32.00
2019-01-10T10:14:48.588Z,33.30
2019-01-10T10:15:54.368Z,33.30
2019-01-10T10:17:00.183Z,34.78
2019-01-10T10:18:06.638Z,35.80
2019-01-10T10:19:12.428Z,35.10
2019-01-10T10:20:20.889Z,33.50
2019-01-10T10:21:26.670Z,35.35
2019-01-10T10:22:32.429Z,35.28
2019-01-10T10:23:39.206Z,34.60
2019-01-10T10:24:45.006Z,33.88
2019-01-10T10:25:52.096Z,33.35
2019-01-10T10:26:57.837Z,33.30
2019-01-10T10:28:03.580Z,34.60
2019-01-10T10:29:09.356Z,33.38
2019-01-10T10:30:17.653Z,34.95
2019-01-10T10:31:23.417Z,34.05
2019-01-10T10:32:29.162Z,34.92
2019-01-10T10:33:34.950Z,32.28
2019-01-10T10:34:40.661Z,32.20
2019-01-10T10:35:46.458Z,32.42
2019-01-10T10:36:53.562Z,32.05
2019-01-10T10:37:59.369Z,33.28
2019-01-10T10:39:08.332Z,33.18
2019-01-10T10:40:16.452Z,34.48
2019-01-10T10:41:22.313Z,33.70
2019-01-10T10:42:28.140Z,32.60
2019-01-10T10:43:33.929Z,30.92
2019-01-10T10:44:40.082Z,32.75
2019-01-10T10:45:45.887Z,31.87
2019-01-10T10:46:51.682Z,30.68
2019-01-10T10:47:59.556Z,32.67
2019-01-10T10:49:05.922Z,32.50
2019-01-10T10:50:14.892Z,33.60
2019-01-10T10:51:20.698Z,32.03
2019-01-10T10:52:26.561Z,31.35
2019-01-10T10:53:32.786Z,33.15
2019-01-10T10:54:38.527Z,32.70
2019-01-10T10:55:45.390Z,31.35
2019-01-10T10:56:51.200Z,32.33
2019-01-10T10:57:57.182Z,32.08
2019-01-10T10:59:02.958Z,30.43
2019-01-10T11:00:12.237Z,33.33
2019-01-10T11:01:18.121Z,31.12
2019-01-10T11:02:23.936Z,32.40
2019-01-10T11:03:29.945Z,30.92
2019-01-10T11:04:35.752Z,30.88
2019-01-10T11:05:41.498Z,31.62
2019-01-10T11:06:47.241Z,31.65
2019-01-10T11:07:53.031Z,31.55
2019-01-10T11:08:58.877Z,31.90
2019-01-10T11:10:05.351Z,32.00
2019-01-10T11:11:11.209Z,30.60
2019-01-10T11:12:16.972Z,32.25
2019-01-10T11:13:22.749Z,31.48
2019-01-10T11:14:28.626Z,32.08
2019-01-10T11:15:34.340Z,32.45
2019-01-10T11:16:40.058Z,32.83
2019-01-10T11:17:46.490Z,29.82
2019-01-10T11:18:52.285Z,32.23
2019-01-10T11:19:58.159Z,31.40
2019-01-10T11:21:03.946Z,30.25
2019-01-10T11:22:10.078Z,31.73
2019-01-10T11:23:16.017Z,31.37
2019-01-10T11:24:21.809Z,32.20
2019-01-10T11:25:29.010Z,31.60
2019-01-10T11:26:34.994Z,32.65
2019-01-10T11:27:40.809Z,30.60
2019-01-10T11:28:46.542Z,32.00
2019-01-10T11:29:52.391Z,32.20
2019-01-10T11:30:59.271Z,30.72
2019-01-10T11:32:12.971Z,32.40
2019-01-10T11:33:12.557Z,31.15
2019-01-10T11:34:18.417Z,32.78
2019-01-10T11:35:24.416Z,31.30
2019-01-10T11:36:30.276Z,30.17
2019-01-10T11:37:36.070Z,30.97
2019-01-10T11:38:41.851Z,30.70
2019-01-10T11:39:47.646Z,32.25
2019-01-10T11:40:53.375Z,30.65
2019-01-10T11:42:00.197Z,31.62
2019-01-10T11:43:06.037Z,31.20
2019-01-10T11:44:11.757Z,30.92
2019-01-10T11:45:19.464Z,30.70
2019-01-10T11:46:25.209Z,31.95
2019-01-10T11:47:31.062Z,34.05
2019-01-10T11:48:36.986Z,30.57
2019-01-10T11:49:42.781Z,32.67
2019-01-10T11:50:48.557Z,31.37
2019-01-10T11:51:54.302Z,30.97
2019-01-10T11:53:00.117Z,31.35
2019-01-10T11:54:06.017Z,31.55
2019-01-10T11:55:12.073Z,30.95
2019-01-10T11:56:18.280Z,31.12
2019-01-10T11:57:24.049Z,32.55
2019-01-10T11:58:29.870Z,31.68
2019-01-10T11:59:35.718Z,32.10
2019-01-10T12:00:41.548Z,32.08
2019-01-10T12:01:47.259Z,30.68
2019-01-10T12:02:53.037Z,29.60
2019-01-10T12:03:58.923Z,31.90
2019-01-10T12:05:05.328Z,30.15
2019-01-10T12:06:11.069Z,28.65
2019-01-10T12:07:16.809Z,30.23
2019-01-10T12:08:22.517Z,30.68
2019-01-10T12:09:28.328Z,32.05
2019-01-10T12:10:34.076Z,30.62
2019-01-10T12:11:39.836Z,31.97
2019-01-10T12:12:45.995Z,31.97
2019-01-10T12:13:51.797Z,30.97
2019-01-10T12:14:57.750Z,31.80
2019-01-10T12:16:03.521Z,32.00
2019-01-10T12:17:09.338Z,30.92
2019-01-10T12:18:15.069Z,31.07
2019-01-10T12:19:20.862Z,32.93
2019-01-10T12:20:26.713Z,33.98
2019-01-10T12:21:32.568Z,33.48
2019-01-10T12:22:38.443Z,34.38
2019-01-10T12:23:44.216Z,31.87
2019-01-10T12:24:49.988Z,31.07
2019-01-10T12:25:55.799Z,33.15
2019-01-10T12:27:01.559Z,31.55
2019-01-10T12:28:09.690Z,32.90
2019-01-10T12:29:15.509Z,33.05
2019-01-10T12:30:23.854Z,32.40
2019-01-10T12:31:31.927Z,34.53
2019-01-10T12:32:38.836Z,31.68
2019-01-10T12:33:45.801Z,31.48
2019-01-10T12:34:52.731Z,31.52
2019-01-10T12:35:59.612Z,31.90
2019-01-10T12:37:07.098Z,31.30
2019-01-10T12:38:13.943Z,32.00
2019-01-10T12:39:20.721Z,30.02
2019-01-10T12:40:28.593Z,33.60
2019-01-10T12:41:35.372Z,31.90
2019-01-10T12:42:42.237Z,32.05
2019-01-10T12:43:49.021Z,32.23
2019-01-10T12:44:55.767Z,31.35
2019-01-10T12:46:02.620Z,30.55
2019-01-10T12:47:09.421Z,31.27
2019-01-10T12:48:16.293Z,32.03
2019-01-10T12:49:23.097Z,32.10
2019-01-10T12:50:34.474Z,31.55
2019-01-10T12:51:42.061Z,32.08
2019-01-10T12:52:48.957Z,31.35
2019-01-10T12:53:55.904Z,31.55
2019-01-10T12:55:03.106Z,30.65
2019-01-10T12:56:10.033Z,31.35
2019-01-10T12:57:16.842Z,31.87
2019-01-10T12:58:23.755Z,32.15
2019-01-10T12:59:30.674Z,32.08
2019-01-10T13:00:37.537Z,32.45
2019-01-10T13:01:44.446Z,31.00
2019-01-10T13:02:51.302Z,29.98
2019-01-10T13:03:58.304Z,32.13
2019-01-10T13:05:05.710Z,29.95
2019-01-10T13:06:12.621Z,31.05
2019-01-10T13:07:19.516Z,31.95
2019-01-10T13:08:26.472Z,30.70
2019-01-10T13:09:33.555Z,30.92
2019-01-10T13:10:40.553Z,30.90
2019-01-10T13:11:48.436Z,29.90
2019-01-10T13:12:55.293Z,30.37
2019-01-10T13:14:05.533Z,27.50
2019-01-10T13:15:13.425Z,29.20
2019-01-10T13:16:20.194Z,28.27
2019-01-10T13:17:27.183Z,28.92
2019-01-10T13:18:34.065Z,30.20
2019-01-10T13:19:40.825Z,28.20
2019-01-10T13:20:47.813Z,29.30
2019-01-10T13:21:54.908Z,29.35
2019-01-10T13:23:02.826Z,30.08
2019-01-10T13:24:09.774Z,30.27
2019-01-10T13:25:18.158Z,29.18
2019-01-10T13:26:24.982Z,28.83
2019-01-10T13:27:32.005Z,29.05
2019-01-10T13:28:39.109Z,28.07
2019-01-10T13:29:46.063Z,29.57
2019-01-10T13:30:53.172Z,30.52
2019-01-10T13:32:00.005Z,30.55
2019-01-10T13:33:07.221Z,31.70
2019-01-10T13:34:14.176Z,29.72
2019-01-10T13:35:20.976Z,30.55
2019-01-10T13:36:27.827Z,30.00
2019-01-10T13:37:34.744Z,30.32
2019-01-10T13:38:41.637Z,29.05
2019-01-10T13:39:48.459Z,30.27
2019-01-10T13:40:55.316Z,30.97
2019-01-10T13:42:02.106Z,31.07
2019-01-10T13:43:08.959Z,31.55
2019-01-10T13:44:15.812Z,32.00
2019-01-10T13:45:23.672Z,32.20
2019-01-10T13:46:30.535Z,33.90
2019-01-10T13:47:37.391Z,35.23
2019-01-10T13:48:44.326Z,35.35
2019-01-10T13:49:51.267Z,34.08
2019-01-10T13:50:58.115Z,38.73
2019-01-10T13:52:04.904Z,40.88
2019-01-10T13:53:12.867Z,38.45
2019-01-10T13:54:19.678Z,39.65
2019-01-10T13:55:26.669Z,38.25
2019-01-10T13:56:33.701Z,37.08
2019-01-10T13:57:44.058Z,37.88
2019-01-10T13:58:50.936Z,38.23
2019-01-10T13:59:57.843Z,37.85
2019-01-10T14:01:04.937Z,36.88
2019-01-10T14:02:11.761Z,36.33
2019-01-10T14:03:18.633Z,37.65
2019-01-10T14:04:25.469Z,36.28
2019-01-10T14:05:32.772Z,36.03
2019-01-10T14:06:39.711Z,34.92
2019-01-10T14:07:47.076Z,32.55
2019-01-10T14:08:54.034Z,32.73
2019-01-10T14:10:00.796Z,30.37
2019-01-10T14:11:07.690Z,32.05
2019-01-10T14:12:17.276Z,33.10
2019-01-10T14:13:24.050Z,33.95
2019-01-10T14:14:30.904Z,36.08